Latest Weather Observations for Cape Sorell

IDT60801

Issued at 11:31 pm EST Tuesday 28 July 2015 (issued every 30 minutes, with the page automatically refreshed every 10 minutes)

About weather observations | Map of weather stations | Latest weather observations for TAS | Other Formats
Station Details ID: 097000 Name: CAPE SORELL Lat: -42.20 Lon: 145.17 Height: 19.3 m
Data from the previous 72 hours. | See also: Recent months at Cape Sorell
Date/Time
EST
Temp
°C
App
Temp
°C
Dew
Point
Rel
Hum
%
Delta-T
°C
Wind Press
QNH
hPa
Press
MSL
hPa
Rain
since 9 am
mm
Dir
 
Spd
km/h
Gust
km/h
Spd
kts
Gust
kts
28/11:30pm 10.1 7.3 8.5 90 0.8 W 13 19 7 10 1029.3 1029.3 1.8
28/11:00pm 10.2 7.1 8.8 91 0.7 W 15 20 8 11 1029.3 1029.3 1.8
28/10:30pm 10.2 6.1 8.6 90 0.8 W 20 28 11 15 1029.2 1029.2 1.8
28/10:00pm 10.1 5.6 8.7 91 0.7 WSW 22 28 12 15 1029.2 1029.2 1.8
28/09:30pm 10.0 5.6 8.8 92 0.6 W 22 32 12 17 1029.1 1029.1 1.8
28/09:00pm 10.2 4.3 9.0 92 0.6 WSW 30 37 16 20 1029.2 1029.2 1.8
28/08:30pm 10.8 6.5 9.2 90 0.8 W 22 32 12 17 1029.2 1029.2 1.8
28/08:00pm 10.5 6.1 9.1 91 0.7 W 22 26 12 14 1029.2 1029.2 1.8
28/07:30pm 10.6 7.3 9.4 92 0.6 W 17 22 9 12 1029.2 1029.2 1.8
28/07:00pm 10.6 6.7 9.5 93 0.5 W 20 28 11 15 1029.2 1029.2 1.8
28/06:30pm 10.4 6.1 9.3 93 0.5 W 22 30 12 16 1029.0 1029.0 1.8
28/06:00pm 10.4 6.5 9.3 93 0.5 W 20 30 11 16 1029.0 1029.0 1.4
28/05:30pm 10.7 6.8 9.5 92 0.6 W 20 30 11 16 1028.5 1028.5 1.4
28/05:00pm 10.7 6.8 9.5 92 0.6 W 20 32 11 17 1028.4 1028.4 1.4
28/04:30pm 10.4 6.0 9.0 91 0.7 W 22 32 12 17 1028.3 1028.3 1.4
28/04:00pm 11.1 6.8 9.2 88 0.9 W 22 28 12 15 1028.3 1028.3 1.2
28/03:30pm 11.1 6.8 9.4 89 0.9 W 22 30 12 16 1028.2 1028.2 1.2
28/03:00pm 10.9 5.4 9.2 89 0.8 W 28 44 15 24 1027.7 1027.7 1.2
28/02:30pm 11.3 6.7 9.6 89 0.9 WSW 24 32 13 17 1027.8 1027.8 1.2
28/02:00pm 11.2 6.3 9.8 91 0.7 WSW 26 32 14 17 1027.6 1027.6 1.2
28/01:30pm 11.1 6.2 10.0 93 0.6 W 26 33 14 18 1027.7 1027.7 1.2
28/01:00pm 10.7 4.4 9.6 93 0.5 WSW 33 41 18 22 1027.8 1027.8 1.2
28/12:30pm 11.2 5.9 9.8 91 0.7 WSW 28 37 15 20 1027.9 1027.9 1.0
28/12:00pm 11.2 5.2 10.0 92 0.6 WSW 32 37 17 20 1028.1 1028.1 1.0
28/11:30am 10.8 5.8 9.7 93 0.6 WSW 26 35 14 19 1028.4 1028.4 1.0
28/11:00am 11.1 6.6 9.9 92 0.6 WSW 24 35 13 19 1028.5 1028.5 0.6
28/10:30am 10.7 4.9 9.5 92 0.6 WSW 30 44 16 24 1028.3 1028.3 0.6
28/10:00am 10.7 6.4 9.5 92 0.6 WSW 22 37 12 20 1028.2 1028.2 0.6
28/09:30am 10.4 5.7 9.2 92 0.6 WSW 24 32 13 17 1028.1 1028.1 0.6
28/09:00am 10.8 6.5 9.2 90 0.8 W 22 30 12 16 1027.9 1027.9 3.4
28/08:30am 10.4 6.4 9.2 92 0.6 WSW 20 28 11 15 1027.7 1027.7 3.4
28/08:00am 10.6 5.8 8.9 89 0.8 WSW 24 28 13 15 1027.3 1027.3 3.2
28/07:30am 10.3 3.7 8.7 90 0.8 SW 33 41 18 22 1026.9 1026.9 3.2
28/07:15am 10.6 4.0 8.7 88 0.9 WSW 33 48 18 26 1026.5 1026.5 3.2
28/07:00am 10.7 5.8 8.6 87 1.0 W 24 37 13 20 1026.6 1026.6 3.0
28/06:30am 10.9 6.3 8.1 83 1.4 W 22 30 12 16 1026.4 1026.4 2.8
28/06:00am 10.7 5.3 7.8 82 1.4 W 26 37 14 20 1026.0 1026.0 2.8
28/05:30am 10.6 4.4 7.7 82 1.4 WSW 30 39 16 21 1025.7 1025.7 2.8
28/05:00am 10.5 3.3 7.7 83 1.3 WSW 35 43 19 23 1025.6 1025.6 2.8
28/04:30am 10.7 4.0 7.2 79 1.7 WSW 32 37 17 20 1025.5 1025.5 2.8
28/04:00am 10.8 3.6 7.7 81 1.5 WSW 35 43 19 23 1025.3 1025.3 2.8
28/03:30am 10.6 3.7 7.1 79 1.7 WSW 33 37 18 20 1025.5 1025.5 2.8
28/03:00am 10.4 2.7 7.1 80 1.6 WSW 37 44 20 24 1025.4 1025.4 2.8
28/02:30am 9.7 0.6 6.6 81 1.4 WSW 44 54 24 29 1024.9 1024.9 2.8
28/02:00am 10.2 2.0 8.3 88 0.9 WSW 41 48 22 26 1024.5 1024.5 2.8
28/01:30am 9.4 2.6 7.5 88 0.9 WSW 33 46 18 25 1024.5 1024.5 2.8
28/01:00am 10.4 5.2 7.1 80 1.6 W 24 30 13 16 1024.6 1024.6 2.2
28/12:30am 10.4 5.7 7.8 84 1.3 WSW 22 30 12 16 1024.4 1024.4 2.2
28/12:00am 10.7 5.9 7.4 80 1.6 WSW 22 28 12 15 1024.4 1024.4 2.2
 
Date/Time
EST
Temp
°C
App
Temp
°C
Dew
Point
Rel
Hum
%
Delta-T
°C
Wind Press
QNH
hPa
Press
MSL
hPa
Rain
since 9 am
mm
Dir
 
Spd
km/h
Gust
km/h
Spd
kts
Gust
kts
27/11:30pm 10.7 5.2 7.6 81 1.5 WSW 26 32 14 17 1024.5 1024.5 2.2
27/11:00pm 10.5 4.6 7.6 82 1.4 WSW 28 33 15 18 1024.7 1024.7 2.2
27/10:30pm 10.6 4.7 7.7 82 1.4 WSW 28 32 15 17 1024.6 1024.6 2.2
27/10:00pm 10.6 4.1 8.0 84 1.3 WSW 32 35 17 19 1024.4 1024.4 2.2
27/09:30pm 10.3 2.7 7.4 82 1.4 SW 37 43 20 23 1024.1 1024.1 2.2
27/09:00pm 10.2 3.1 8.1 87 1.0 WSW 35 41 19 22 1024.0 1024.0 2.2
27/08:30pm 10.0 2.2 8.3 89 0.8 SW 39 52 21 28 1023.7 1023.7 2.2
27/08:00pm 10.7 3.4 8.6 87 1.0 SW 37 43 20 23 1023.4 1023.4 2.2
27/07:30pm 10.5 3.9 8.6 88 0.9 WSW 33 41 18 22 1022.9 1022.9 2.2
27/07:00pm 10.5 3.9 8.6 88 0.9 WSW 33 43 18 23 1022.5 1022.5 2.2
27/06:30pm 10.2 3.6 8.5 89 0.8 WSW 33 39 18 21 1022.2 1022.2 2.2
27/06:00pm 10.4 4.3 8.3 87 1.0 WSW 30 37 16 20 1021.9 1021.9 2.2
27/05:30pm 10.1 5.1 8.2 88 0.9 WSW 24 32 13 17 1021.8 1021.8 2.2
27/05:00pm 10.5 5.0 7.4 81 1.5 WSW 26 32 14 17 1021.7 1021.7 2.2
27/04:30pm 10.8 3.9 7.1 78 1.8 WSW 33 39 18 21 1021.5 1021.5 2.2
27/04:00pm 10.7 3.4 7.0 78 1.7 WSW 35 39 19 21 1021.3 1021.3 2.2
27/03:30pm 10.7 2.6 7.0 78 1.8 WSW 39 48 21 26 1021.0 1021.0 2.2
27/03:00pm 10.4 3.6 7.8 84 1.2 WSW 33 41 18 22 1020.9 1020.9 2.2
27/02:30pm 9.9 2.7 7.7 86 1.1 SW 35 44 19 24 1020.7 1020.7 2.2
27/02:16pm 10.4 1.6 7.3 81 1.5 WSW 43 63 23 34 1020.0 1020.0 2.0
27/02:00pm 11.1 3.3 8.3 83 1.4 WSW 39 46 21 25 1020.3 1020.3 2.0
27/01:30pm 10.4 3.0 8.2 86 1.1 SW 37 46 20 25 1020.1 1020.1 2.0
27/01:11pm 9.0 0.0 6.4 84 1.2 SW 43 61 23 33 1020.3 1020.3 2.0
27/01:00pm 11.0 2.4 8.1 82 1.4 SW 43 52 23 28 1020.2 1020.2 1.6
27/12:30pm 10.3 1.0 7.5 83 1.3 SW 46 54 25 29 1020.0 1020.0 1.6
27/12:00pm 9.6 0.8 7.4 86 1.0 SW 43 54 23 29 1020.0 1020.0 1.6
27/11:30am 8.4 -0.7 6.7 89 0.8 SW 44 57 24 31 1020.3 1020.3 1.6
27/11:00am 10.0 1.8 8.1 88 0.9 SW 41 50 22 27 1020.1 1020.1 0.6
27/10:30am 9.3 0.3 7.4 88 0.9 SW 44 52 24 28 1019.7 1019.7 0.6
27/10:09am 9.1 -2.3 7.4 89 0.8 SW 57 80 31 43 1019.0 1019.0 0.4
27/10:00am 9.1 -0.1 7.9 92 0.6 SW 46 57 25 31 1019.5 1019.5 0.4
27/09:49am 8.2 -3.4 6.7 90 0.7 SW 57 76 31 41 1019.4 1019.4 0.2
27/09:40am 8.5 -3.9 6.3 86 1.0 SW 61 78 33 42 1019.0 1019.0 0.0
27/09:30am 9.7 -2.1 7.6 87 1.0 WSW 59 70 32 38 1018.5 1018.5 0.0
27/09:00am 9.8 -2.7 7.7 87 1.0 WSW 63 76 34 41 1017.8 1017.8 4.6
27/08:47am 9.8 -1.9 7.9 88 0.9 WSW 59 76 32 41 1016.9 1016.9 4.6
27/08:30am 9.2 0.0 8.0 92 0.6 WSW 46 67 25 36 1017.3 1017.3 4.6
27/08:28am 8.9 0.2 7.7 92 0.6 WSW 43 67 23 36 1017.5 1017.5 4.6
27/08:00am 9.0 -0.8 7.1 88 0.9 WSW 48 57 26 31 1017.3 1017.3 2.8
27/07:30am 8.9 0.3 6.3 84 1.2 WSW 41 54 22 29 1017.2 1017.2 2.4
27/07:00am 8.7 -0.7 5.4 80 1.5 WSW 44 54 24 29 1017.3 1017.3 2.4
27/06:30am 8.8 -0.5 5.2 78 1.6 WSW 43 52 23 28 1017.3 1017.3 2.4
27/06:00am 8.7 -0.6 5.8 82 1.3 SW 44 57 24 31 1016.8 1016.8 2.4
27/05:30am 8.2 -2.3 5.7 84 1.1 SW 50 61 27 33 1016.6 1016.6 2.4
27/05:00am 7.8 -1.6 5.6 86 1.0 SW 44 52 24 28 1016.5 1016.5 2.4
27/04:37am 7.0 -3.2 5.0 87 0.9 SW 48 67 26 36 1016.5 1016.5 2.4
27/04:30am 7.4 -4.0 5.0 85 1.1 SW 54 67 29 36 1016.2 1016.2 2.2
27/04:00am 7.4 -2.8 5.0 85 1.1 SW 48 57 26 31 1016.0 1016.0 2.2
27/03:30am 6.7 -3.2 4.9 88 0.8 SW 46 54 25 29 1015.9 1015.9 2.0
27/03:00am 8.1 -3.1 4.1 76 1.7 SW 52 65 28 35 1015.4 1015.5 2.0
27/02:30am 7.5 -2.9 4.1 79 1.5 SW 48 59 26 32 1015.4 1015.5 2.0
27/02:00am 7.1 -2.4 3.7 79 1.4 SW 43 54 23 29 1015.2 1015.3 2.0
27/01:48am 6.3 -6.7 3.6 83 1.1 SW 61 83 33 45 1015.3 1015.4 2.0
27/01:39am 6.8 -4.1 3.6 80 1.4 SW 50 76 27 41 1014.4 1014.5 2.0
27/01:37am 7.2 -2.5 3.8 79 1.5 SW 44 67 24 36 1014.9 1015.0 2.0
27/01:30am 7.1 -3.4 3.9 80 1.4 SW 48 59 26 32 1014.8 1014.9 2.0
27/01:00am 7.8 -2.6 4.2 78 1.6 SW 48 65 26 35 1013.9 1014.0 2.0
27/12:30am 7.3 -3.1 4.4 82 1.3 SSW 48 61 26 33 1013.8 1013.9 2.0
27/12:01am 7.0 -2.9 4.7 85 1.0 SW 46 65 25 35 1013.3 1013.4 2.0
27/12:00am 6.7 -2.9 4.4 85 1.0 SW 44 59 24 32 1013.5 1013.6 2.0
 
Date/Time
EST
Temp
°C
App
Temp
°C
Dew
Point
Rel
Hum
%
Delta-T
°C
Wind Press
QNH
hPa
Press
MSL
hPa
Rain
since 9 am
mm
Dir
 
Spd
km/h
Gust
km/h
Spd
kts
Gust
kts
26/11:44pm 7.3 -4.0 3.7 78 1.5 SW 52 78 28 42 1013.1 1013.2 1.6
26/11:30pm 6.3 -3.4 4.0 85 1.0 SW 44 57 24 31 1012.9 1013.0 1.6
26/11:27pm 6.0 -4.5 3.8 86 0.9 SW 48 65 26 35 1013.1 1013.2 1.6
26/11:20pm 5.4 -4.3 3.1 85 0.9 SW 43 65 23 35 1013.0 1013.1 1.4
26/11:18pm 6.5 -2.2 4.0 84 1.1 SW 39 61 21 33 1013.2 1013.3 1.4
26/11:07pm 5.8 -5.5 3.3 84 1.0 SW 52 67 28 36 1013.0 1013.1 1.4
26/11:00pm 6.4 -6.4 4.6 88 0.8 SW 61 78 33 42 1012.4 1012.5 1.4
26/10:53pm 7.1 -5.1 3.5 78 1.5 WSW 57 78 31 42 1011.8 1011.9 1.0
26/10:30pm 7.4 -2.7 3.8 78 1.5 SW 46 61 25 33 1011.6 1011.7 1.0
26/10:20pm 6.0 -7.1 2.8 80 1.3 SW 61 76 33 41 1011.8 1011.9 1.0
26/10:05pm 7.1 -6.2 3.9 80 1.4 SW 63 78 34 42 1010.6 1010.7 1.0
26/10:00pm 7.4 -3.8 4.0 79 1.5 SW 52 72 28 39 1010.6 1010.7 1.0
26/09:59pm 7.5 -3.3 4.3 80 1.4 SW 50 72 27 39 1010.7 1010.8 1.0
26/09:44pm 6.3 -6.1 4.5 88 0.8 SW 59 87 32 47 1011.0 1011.1 1.0
26/09:38pm 5.9 -8.2 3.9 87 0.8 SW 67 91 36 49 1010.8 1010.9 1.0
26/09:35pm 6.7 -7.0 3.9 82 1.2 SW 65 91 35 49 1009.8 1009.9 1.0
26/09:33pm 7.7 -5.3 3.6 75 1.8 SW 61 87 33 47 1010.1 1010.2 1.0
26/09:30pm 7.7 -5.4 3.2 73 1.9 SW 61 74 33 40 1010.3 1010.4 1.0
26/09:23pm 7.5 -7.1 3.2 74 1.8 SW 69 87 37 47 1010.2 1010.3 1.0
26/09:00pm 7.6 -6.9 3.8 77 1.6 SW 69 85 37 46 1009.0 1009.1 0.8
26/08:55pm 7.9 -6.1 4.3 78 1.6 SW 67 85 36 46 1008.7 1008.8 0.8
26/08:30pm 7.4 -6.5 4.9 84 1.1 SW 67 80 36 43 1008.5 1008.6 0.8
26/08:00pm 7.3 -7.1 5.1 86 1.0 SW 70 93 38 50 1008.2 1008.3 0.8
26/07:30pm 8.7 -6.6 4.3 74 1.9 SW 74 95 40 51 1006.5 1006.6 0.8
26/07:01pm 7.8 -8.6 4.7 81 1.4 SW 80 100 43 54 1004.9 1005.0 0.8
26/07:00pm 7.9 -8.8 5.0 82 1.3 SW 82 100 44 54 1004.9 1005.0 0.8
26/06:30pm 8.7 -6.3 5.8 82 1.3 SW 74 93 40 50 1003.8 1003.9 0.8
26/06:12pm 8.5 -7.3 5.8 83 1.2 SW 78 96 42 52 1002.6 1002.6 0.8
26/06:00pm 7.9 -8.2 6.0 88 0.9 SW 80 93 43 50 1002.8 1002.8 0.6
26/05:44pm 8.3 -7.7 6.3 87 0.9 SW 80 100 43 54 1001.5 1001.5 0.6
26/05:30pm 8.2 -8.9 6.0 86 1.0 WSW 85 102 46 55 1000.4 1000.4 0.6
26/05:01pm 7.8 -8.3 6.1 89 0.8 SW 80 102 43 55 999.5 999.5 0.6
26/05:00pm 7.8 -7.9 6.1 89 0.8 SW 78 95 42 51 1000.0 1000.0 0.6
26/04:30pm 9.2 -7.7 5.2 76 1.8 WSW 83 104 45 56 998.3 998.3 0.6
26/04:00pm 8.9 -7.7 5.5 79 1.6 WSW 82 102 44 55 997.2 997.2 0.6
26/03:33pm 9.1 -5.9 5.8 80 1.5 WSW 74 93 40 50 997.0 997.0 0.6
26/03:30pm 8.9 -6.2 5.6 80 1.5 WSW 74 91 40 49 997.4 997.4 0.6
26/03:01pm 9.3 -5.3 6.0 80 1.5 SW 72 91 39 49 996.7 996.7 0.6
26/03:00pm 9.2 -5.8 5.9 80 1.5 SW 74 91 40 49 996.6 996.6 0.6
26/02:52pm 9.0 -5.0 6.3 83 1.2 WSW 69 91 37 49 995.8 995.8 0.6
26/02:49pm 9.7 -2.6 6.8 82 1.4 WSW 61 83 33 45 996.1 996.1 0.6
26/02:30pm 9.6 -2.1 6.3 80 1.5 WSW 57 76 31 41 995.6 995.6 0.6
26/02:03pm 9.4 -1.2 6.8 84 1.2 WSW 52 74 28 40 995.1 995.1 0.4
26/02:00pm 9.2 -1.5 6.5 83 1.3 WSW 52 65 28 35 995.3 995.3 0.4
26/01:37pm 8.6 0.1 6.9 89 0.8 W 41 61 22 33 995.4 995.4 0.4
26/01:30pm 8.3 -1.3 6.3 87 0.9 W 46 61 25 33 995.3 995.3 0.4
26/01:00pm 7.5 -2.7 5.3 86 1.0 WNW 48 80 26 43 995.9 995.9 0.2
26/12:35pm 8.8 -2.6 4.8 76 1.8 WNW 54 72 29 39 995.8 995.8 0.0
26/12:30pm 8.5 -3.4 4.1 74 1.9 WNW 56 72 30 39 995.7 995.7 0.0
26/12:00pm 8.6 -3.4 4.8 77 1.7 W 57 80 31 43 995.8 995.8 0.0
26/11:30am 8.3 -3.8 4.3 76 1.7 W 57 78 31 42 995.8 995.8 0.0
26/11:07am 8.5 -2.5 4.9 78 1.6 WNW 52 70 28 38 996.0 996.0 0.0
26/11:00am 8.3 -3.5 4.9 79 1.5 WNW 56 72 30 39 996.3 996.3 0.0
26/10:35am 9.2 -3.0 3.8 69 2.4 WNW 57 78 31 42 996.0 996.0 0.0
26/10:30am 9.3 -2.9 3.9 69 2.4 WNW 57 74 31 40 996.2 996.2 0.0
26/10:00am 9.1 -3.4 4.1 71 2.2 WNW 59 78 32 42 995.9 995.9 0.0
26/09:30am 9.3 -2.7 4.5 72 2.1 WNW 57 78 31 42 995.8 995.8 0.0
26/09:00am 9.0 -3.0 4.0 71 2.2 WNW 56 78 30 42 995.6 995.6 13.4
26/08:35am 8.6 -3.5 4.4 75 1.8 WNW 57 76 31 41 995.2 995.2 13.4
26/08:30am 8.6 -3.1 5.2 79 1.5 WNW 56 72 30 39 995.3 995.3 13.4
26/08:00am 7.8 -4.3 4.4 79 1.5 WNW 57 83 31 45 995.2 995.2 13.2
26/07:57am 8.8 -4.1 4.2 73 2.0 WNW 61 83 33 45 995.0 995.0 13.0
26/07:30am 9.4 -1.8 3.8 68 2.4 NW 52 78 28 42 995.0 995.0 13.0
26/07:00am 9.7 -4.4 1.8 58 3.3 WNW 65 85 35 46 994.4 994.4 13.0
26/06:30am 9.7 -4.6 2.8 62 3.0 WNW 67 89 36 48 994.1 994.1 13.0
26/06:00am 9.0 -3.5 4.0 71 2.2 WNW 59 82 32 44 994.2 994.2 13.0
26/05:33am 9.5 -4.0 2.8 63 2.9 WNW 63 87 34 47 993.7 993.7 13.0
26/05:30am 9.3 -3.7 3.3 66 2.6 WNW 61 78 33 42 993.8 993.8 13.0
26/05:00am 9.9 -3.0 4.1 67 2.6 WNW 61 83 33 45 993.7 993.7 13.0
26/04:30am 9.4 -5.1 3.8 68 2.4 NW 69 89 37 48 993.4 993.4 13.0
26/04:00am 9.3 -3.2 4.3 71 2.2 NW 59 80 32 43 993.3 993.3 13.0
26/03:44am 9.3 -3.8 4.9 74 2.0 WNW 63 87 34 47 993.7 993.7 13.0
26/03:40am 8.8 -3.3 4.2 73 2.0 NW 57 85 31 46 992.9 992.9 13.0
26/03:30am 9.0 -1.4 6.1 82 1.3 NW 50 70 27 38 993.5 993.5 13.0
26/03:00am 8.5 -4.8 5.6 82 1.3 NW 65 95 35 51 993.3 993.3 13.0
26/02:56am 8.6 -4.3 5.7 82 1.3 NW 63 91 34 49 993.1 993.1 13.0
26/02:55am 8.4 -4.3 5.3 81 1.4 NW 61 91 33 49 992.9 992.9 12.8
26/02:30am 9.8 -4.1 4.8 71 2.2 NNW 67 85 36 46 993.2 993.2 12.6
26/02:00am 9.3 -3.2 6.2 81 1.4 NW 61 87 33 47 993.2 993.2 12.6
26/01:30am 10.3 -1.7 4.7 68 2.5 NNW 57 76 31 41 993.8 993.8 12.2
26/01:02am 10.6 -1.3 4.5 66 2.7 NW 56 78 30 42 993.7 993.7 12.2
26/01:00am 10.4 -1.5 4.1 65 2.8 NW 56 70 30 38 993.9 993.9 12.2
26/12:40am 10.5 -1.2 5.3 70 2.4 NNW 56 76 30 41 993.9 993.9 12.2
26/12:30am 10.1 -1.9 4.5 68 2.5 NNW 57 74 31 40 994.0 994.0 12.2
26/12:00am 10.0 -1.8 5.0 71 2.3 NNW 56 70 30 38 994.3 994.3 12.2

Other Formats:

Comma delimited format used in spreadsheet applications
http://www.bom.gov.au/fwo/IDT60801/IDT60801.94974.axf

JavaScript Object Notation format (JSON) in row-major order
http://www.bom.gov.au/fwo/IDT60801/IDT60801.94974.json